Startpagina
METAR-TAF:

METAR-TAF

Vliegvelden :

Caracas, Venezuela

Aeropuerto Internacional de Maiquetía Simón Bolívar

breedte: 10-36N, lengte: 066-59W, hoogte: 43 m

Actueel weer

Dit bericht is 26 minuten geleden gemaakt, om 18:00 UTC
Wind 8 kt uit het noordoosten
Temperatuur 28°C
Vochtigheid 70%
Druk 1015 hPa
Zicht 10 km of meer
Verspreide wolken op 1600 ft

METAR: SVMI 231800Z 05008KT 9999 SCT016 28/22 Q1015

Tijdstip: 14:26 (18:26 UTC)

Verwachting

Dit bericht is 2 uur en het 26 minuten geleden gemaakt, om 16:00 UTC
Verwachting geldig van 23 om 18 UTC tot 24 om 18 UTC
Wind 10 kt uit het oosten
Zicht 10 km of meer
Verspreide wolken op 1600 ft
Wijzigt naar
van 23 om 18 UTC tot 23 om 22 UTC
Wind 5 kt uit het oostnoordoosten
Gebroken wolken op 2000 ft

TAF: SVMI 231600Z 2318/2418 09010KT 9999 SCT016 TX32/18Z TN24/09Z BECMG 2318/2322 07005KT BKN020

Waarnemingen en weersverwachtingen van meer dan 4000 vliegvelden (METAR en TAF).

De beschikbare stations zijn de gele en rode punten op de kaart.

Ga met uw muis naar het station om de naam te zien.

Klik dan om waarnemingen en weersverwachtingen te zien.

kaart wijzigen: klik op de groene knoppen met een zwart kruis om in te zoomen, op de groene knop met een streepje om uit te zoomen of op de groene pijlen voor aangrenzende kaarten.


METAR-TAF: